Time;durP1;ratioP1;P1;durP2;ratioP2;P2;SDS_P1;SDS_P2;PMS_P1;PMS_P2;Temp;Humidity;BMP_temperature;BMP_pressure;BME280_temperature;BME280_humidity;BME280_pressure;Samples;Min_cycle;Max_cycle;Signal;HPM_P1;HPM_P2
2023/09/27 00:01:27;;;;;;;19.80;17.63;;;15.20;23.40;;;;;;5093480;28;20413;-69
2023/09/27 00:03:53;;;;;;;20.38;18.30;;;15.20;23.90;;;;;;5093357;28;20407;-70
2023/09/27 00:06:19;;;;;;;19.15;17.15;;;15.20;24.10;;;;;;5090843;28;20408;-70
2023/09/27 00:08:44;;;;;;;20.80;18.70;;;15.20;24.40;;;;;;5074482;28;20903;-70
2023/09/27 00:11:10;;;;;;;20.93;18.67;;;15.10;25.00;;;;;;5091926;28;20410;-70
2023/09/27 00:13:35;;;;;;;21.10;18.75;;;15.10;25.40;;;;;;5072676;28;20412;-69
2023/09/27 00:16:01;;;;;;;21.73;19.37;;;15.10;26.00;;;;;;5090639;28;20503;-69
2023/09/27 00:18:26;;;;;;;20.90;18.80;;;15.20;25.90;;;;;;5097734;28;20432;-70
2023/09/27 00:20:52;;;;;;;21.00;18.80;;;15.10;26.00;;;;;;5094927;28;20409;-70
2023/09/27 00:23:18;;;;;;;22.93;19.50;;;15.10;26.10;;;;;;5090536;28;20733;-70
2023/09/27 00:25:43;;;;;;;22.10;19.80;;;15.10;26.30;;;;;;5085467;28;20969;-70
2023/09/27 00:28:09;;;;;;;22.03;19.70;;;15.10;26.00;;;;;;5090721;28;20389;-69
2023/09/27 00:30:35;;;;;;;21.40;19.20;;;15.00;26.00;;;;;;5090126;28;20433;-70
2023/09/27 00:33:00;;;;;;;21.37;19.13;;;15.00;26.40;;;;;;5090339;28;20468;-70
2023/09/27 00:35:26;;;;;;;23.23;19.30;;;15.00;26.90;;;;;;5102586;28;20424;-70
2023/09/27 00:37:52;;;;;;;22.65;20.25;;;15.00;27.10;;;;;;5091616;28;20396;-69
2023/09/27 00:40:22;;;;;;;22.60;20.33;;;15.00;27.50;;;;;;5072876;28;20406;-69
2023/09/27 00:42:48;;;;;;;23.83;20.20;;;14.90;27.30;;;;;;5102551;28;20420;-70
2023/09/27 00:45:15;;;;;;;21.52;18.95;;;15.00;27.80;;;;;;5097785;28;20451;-69
2023/09/27 00:47:41;;;;;;;21.92;19.33;;;15.00;27.90;;;;;;5106742;28;20471;-70
2023/09/27 00:50:11;;;;;;;23.00;20.52;;;15.00;28.10;;;;;;5109499;28;20407;-70
2023/09/27 00:52:40;;;;;;;23.45;20.60;;;15.00;28.30;;;;;;5094362;28;20416;-69
2023/09/27 00:55:09;;;;;;;23.67;21.10;;;14.90;28.60;;;;;;5090712;28;20527;-69
2023/09/27 00:57:35;;;;;;;23.45;20.92;;;15.00;29.10;;;;;;5103221;28;20743;-69
2023/09/27 01:00:02;;;;;;;23.27;20.88;;;15.00;28.30;;;;;;5098034;28;20396;-70
2023/09/27 01:02:28;;;;;;;23.33;20.42;;;15.00;27.90;;;;;;5087973;28;20407;-70
2023/09/27 01:04:54;;;;;;;23.53;21.07;;;15.00;28.10;;;;;;5089479;28;20394;-70
2023/09/27 01:07:20;;;;;;;23.73;21.25;;;15.00;28.20;;;;;;5103523;28;20413;-70
2023/09/27 01:09:46;;;;;;;23.58;21.08;;;15.00;27.90;;;;;;5105705;28;20754;-70
2023/09/27 01:12:11;;;;;;;23.48;20.95;;;15.00;27.80;;;;;;5096854;28;20420;-69
2023/09/27 01:14:37;;;;;;;24.90;21.97;;;14.90;28.20;;;;;;5095239;28;20394;-70
2023/09/27 01:17:09;;;;;;;23.33;20.92;;;15.00;28.00;;;;;;5107937;28;20392;-70
2023/09/27 01:19:35;;;;;;;24.13;21.58;;;14.90;27.70;;;;;;5106455;28;20392;-70
2023/09/27 01:22:01;;;;;;;24.10;21.50;;;14.90;27.90;;;;;;5091406;28;20401;-70
2023/09/27 01:24:29;;;;;;;23.42;20.92;;;14.90;28.30;;;;;;5093331;28;20843;-69
2023/09/27 01:26:57;;;;;;;23.77;21.37;;;14.90;28.40;;;;;;5088929;28;20406;-69
2023/09/27 01:29:22;;;;;;;23.03;20.60;;;14.90;28.20;;;;;;5095373;28;20403;-70
2023/09/27 01:31:48;;;;;;;25.20;22.27;;;14.90;27.80;;;;;;5096830;28;20420;-70
2023/09/27 01:34:13;;;;;;;24.50;21.90;;;14.90;27.70;;;;;;5094627;28;20421;-70
2023/09/27 01:36:39;;;;;;;24.05;21.45;;;14.90;27.70;;;;;;5089505;28;20930;-69
2023/09/27 01:39:07;;;;;;;24.17;21.60;;;14.80;27.80;;;;;;5070119;28;20791;-70
2023/09/27 01:41:32;;;;;;;24.13;21.53;;;14.80;28.10;;;;;;5071036;28;20528;-70
2023/09/27 01:43:58;;;;;;;24.98;22.38;;;14.80;28.50;;;;;;5091649;28;20493;-70
2023/09/27 01:46:23;;;;;;;25.10;21.63;;;14.80;28.60;;;;;;5096688;28;20408;-70
2023/09/27 01:48:50;;;;;;;24.58;21.98;;;14.70;29.00;;;;;;5105915;28;20434;-70
2023/09/27 01:51:16;;;;;;;24.80;22.30;;;14.70;29.40;;;;;;5106082;28;20412;-70
2023/09/27 01:53:42;;;;;;;24.77;21.90;;;14.70;30.00;;;;;;5103423;28;20398;-70
2023/09/27 01:56:07;;;;;;;25.80;23.17;;;14.70;30.50;;;;;;5080857;28;20907;-70
2023/09/27 01:58:33;;;;;;;26.35;22.73;;;14.60;30.70;;;;;;5099318;28;20406;-70
2023/09/27 02:00:59;;;;;;;25.87;23.10;;;14.60;31.20;;;;;;5097920;28;20574;-70
2023/09/27 02:03:24;;;;;;;25.50;22.67;;;14.60;31.90;;;;;;5097610;28;20459;-70
2023/09/27 02:05:52;;;;;;;25.10;22.50;;;14.50;32.40;;;;;;5095105;28;21011;-70
2023/09/27 02:08:17;;;;;;;25.67;22.88;;;14.50;33.30;;;;;;5100517;28;20410;-70
2023/09/27 02:10:43;;;;;;;25.77;22.97;;;14.50;33.80;;;;;;5100616;28;20978;-70
2023/09/27 02:13:09;;;;;;;26.00;23.23;;;14.50;34.10;;;;;;5091644;28;20930;-70
2023/09/27 02:15:34;;;;;;;26.17;23.37;;;14.50;34.70;;;;;;5063549;28;20408;-70
2023/09/27 02:18:00;;;;;;;27.40;24.40;;;14.40;34.90;;;;;;5089178;28;20486;-73
2023/09/27 02:20:25;;;;;;;26.13;23.37;;;14.40;35.70;;;;;;5089644;28;20451;-69
2023/09/27 02:22:54;;;;;;;26.13;23.27;;;14.40;36.30;;;;;;5087812;28;20395;-69
2023/09/27 02:25:20;;;;;;;26.33;22.25;;;14.40;36.60;;;;;;5088302;28;20398;-69
2023/09/27 02:27:46;;;;;;;26.55;23.65;;;14.40;36.80;;;;;;5071294;28;20406;-69
2023/09/27 02:30:12;;;;;;;27.83;23.63;;;14.40;37.10;;;;;;5088955;28;20535;-69
2023/09/27 02:32:42;;;;;;;26.98;23.80;;;14.40;37.30;;;;;;5090209;28;20513;-68
2023/09/27 02:35:11;;;;;;;28.50;24.02;;;14.40;37.70;;;;;;5100155;28;21029;-69
2023/09/27 02:37:38;;;;;;;27.67;23.38;;;14.30;38.30;;;;;;5088214;28;20394;-69
2023/09/27 02:40:11;;;;;;;26.65;23.85;;;14.30;38.50;;;;;;5088343;28;20398;-69
2023/09/27 02:42:41;;;;;;;27.70;23.67;;;14.30;38.70;;;;;;5106451;28;20399;-69
2023/09/27 02:45:11;;;;;;;28.00;23.38;;;14.30;39.30;;;;;;5094660;28;20391;-69
2023/09/27 02:47:39;;;;;;;26.10;23.33;;;14.30;39.50;;;;;;5104264;28;20392;-69
2023/09/27 02:50:09;;;;;;;26.97;24.10;;;14.20;39.80;;;;;;5106471;28;20422;-69
2023/09/27 02:52:35;;;;;;;26.70;23.88;;;14.20;40.00;;;;;;5099783;28;20422;-69
2023/09/27 02:55:01;;;;;;;25.80;23.10;;;14.20;40.50;;;;;;5088169;28;20409;-69
2023/09/27 02:57:26;;;;;;;28.13;24.10;;;14.20;41.00;;;;;;5094541;28;20412;-69
2023/09/27 02:59:52;;;;;;;27.40;24.37;;;14.20;40.90;;;;;;5092617;28;20413;-69
2023/09/27 03:02:20;;;;;;;27.55;24.20;;;14.10;41.00;;;;;;5090921;28;20398;-68
2023/09/27 03:04:47;;;;;;;26.20;23.40;;;14.20;41.40;;;;;;5095675;28;20402;-69
2023/09/27 03:07:14;;;;;;;27.30;24.37;;;14.10;41.90;;;;;;5080107;28;20407;-69
2023/09/27 03:09:39;;;;;;;27.48;24.58;;;14.10;42.20;;;;;;5077839;28;20409;-69
2023/09/27 03:12:06;;;;;;;27.37;24.47;;;14.10;42.20;;;;;;5107703;28;20420;-69
2023/09/27 03:14:32;;;;;;;27.83;24.83;;;14.10;42.20;;;;;;5095749;28;20413;-69
2023/09/27 03:16:58;;;;;;;27.92;24.92;;;14.00;42.20;;;;;;5097426;28;20400;-69
2023/09/27 03:19:24;;;;;;;28.63;25.15;;;14.00;42.60;;;;;;5095508;28;20405;-69
2023/09/27 03:21:51;;;;;;;29.75;26.45;;;14.00;42.70;;;;;;5091976;28;20871;-69
2023/09/27 03:24:17;;;;;;;30.80;25.95;;;14.00;43.50;;;;;;5100646;28;20988;-69
2023/09/27 03:26:43;;;;;;;30.40;25.60;;;14.00;43.90;;;;;;5101257;28;20497;-69
2023/09/27 03:29:08;;;;;;;30.23;26.92;;;14.00;44.30;;;;;;5100058;28;20489;-69
2023/09/27 03:31:34;;;;;;;30.17;26.87;;;13.90;44.90;;;;;;5105857;28;20420;-69
2023/09/27 03:34:00;;;;;;;32.40;27.17;;;14.00;45.60;;;;;;5103052;28;20479;-69
2023/09/27 03:36:26;;;;;;;31.50;27.50;;;13.90;46.30;;;;;;5099159;28;20422;-69
2023/09/27 03:38:52;;;;;;;30.87;27.33;;;13.90;46.70;;;;;;5090855;28;21257;-69
2023/09/27 03:41:17;;;;;;;31.30;27.38;;;13.90;47.20;;;;;;5091769;28;20405;-69
2023/09/27 03:43:43;;;;;;;31.80;27.55;;;13.90;47.50;;;;;;5080260;28;20398;-69
2023/09/27 03:46:08;;;;;;;30.03;26.20;;;13.90;47.70;;;;;;5080614;28;20469;-69
2023/09/27 03:48:34;;;;;;;31.23;27.30;;;13.90;47.90;;;;;;5110221;28;20400;-68
2023/09/27 03:51:00;;;;;;;31.63;28.10;;;13.90;48.10;;;;;;5104022;28;20401;-68
2023/09/27 03:53:26;;;;;;;30.85;27.02;;;13.90;49.00;;;;;;5104347;28;20874;-69
2023/09/27 03:55:51;;;;;;;31.55;28.05;;;13.90;49.20;;;;;;5110092;28;21206;-69
2023/09/27 03:58:17;;;;;;;33.87;27.90;;;13.90;49.30;;;;;;5109022;28;20476;-69
2023/09/27 04:00:44;;;;;;;30.65;27.30;;;13.90;49.30;;;;;;5108530;28;20438;-69
2023/09/27 04:03:10;;;;;;;31.02;26.95;;;13.90;49.40;;;;;;5107693;28;20405;-69
2023/09/27 04:05:35;;;;;;;30.77;26.50;;;13.90;49.70;;;;;;5090717;28;20482;-69
2023/09/27 04:08:01;;;;;;;31.37;27.63;;;13.90;49.70;;;;;;5072845;28;20398;-69
2023/09/27 04:10:28;;;;;;;32.95;27.83;;;13.90;49.90;;;;;;5072374;28;20425;-69
2023/09/27 04:12:54;;;;;;;31.45;26.58;;;13.80;50.10;;;;;;5090970;28;20497;-69
2023/09/27 04:15:19;;;;;;;30.88;27.58;;;13.80;50.70;;;;;;5076765;28;20404;-69
2023/09/27 04:17:45;;;;;;;30.60;27.30;;;13.80;50.60;;;;;;5106000;28;20441;-69
2023/09/27 04:20:29;;;;;;;31.27;27.20;;;13.80;50.60;;;;;;5105866;28;20818;-69
2023/09/27 04:22:54;;;;;;;30.88;26.40;;;13.80;50.60;;;;;;5102338;28;21034;-69
2023/09/27 04:25:20;;;;;;;30.60;27.30;;;13.80;50.40;;;;;;5091055;28;20425;-69
2023/09/27 04:27:49;;;;;;;32.72;28.92;;;13.80;50.40;;;;;;5089674;28;20745;-69
2023/09/27 04:30:18;;;;;;;34.97;28.05;;;13.70;50.50;;;;;;5090455;28;21106;-69
2023/09/27 04:32:45;;;;;;;34.20;29.70;;;13.80;50.90;;;;;;5090445;28;20429;-67
2023/09/27 04:35:12;;;;;;;30.47;27.17;;;13.80;50.80;;;;;;5084406;28;20399;-68
2023/09/27 04:37:39;;;;;;;32.53;28.42;;;13.70;51.30;;;;;;5099268;28;20447;-69
2023/09/27 04:40:11;;;;;;;32.35;28.77;;;13.70;51.40;;;;;;5097345;28;20953;-69
2023/09/27 04:42:41;;;;;;;33.13;28.55;;;13.70;51.60;;;;;;5097591;28;20442;-68
2023/09/27 04:45:08;;;;;;;33.40;28.60;;;13.70;52.20;;;;;;5072830;28;20485;-69
2023/09/27 04:47:34;;;;;;;33.03;28.45;;;13.70;52.50;;;;;;5107456;28;20432;-69
2023/09/27 04:50:00;;;;;;;32.17;28.77;;;13.70;52.80;;;;;;5108659;28;20416;-69
2023/09/27 04:52:25;;;;;;;33.40;28.80;;;13.70;52.70;;;;;;5107461;28;20516;-69
2023/09/27 04:54:56;;;;;;;31.95;28.35;;;13.70;52.40;;;;;;5108474;28;20770;-69
2023/09/27 04:57:23;;;;;;;34.65;29.35;;;13.60;52.20;;;;;;5094775;28;20418;-69
2023/09/27 04:59:50;;;;;;;33.53;28.73;;;13.60;52.10;;;;;;5108025;28;20739;-69
2023/09/27 05:02:16;;;;;;;35.20;28.88;;;13.60;52.00;;;;;;5101458;28;20447;-69
2023/09/27 05:04:42;;;;;;;35.42;29.00;;;13.60;51.90;;;;;;5101555;28;20776;-69
2023/09/27 05:07:09;;;;;;;33.30;29.70;;;13.60;52.10;;;;;;5101638;28;20477;-69
2023/09/27 05:09:34;;;;;;;35.10;30.13;;;13.60;52.80;;;;;;5101255;28;20921;-69
2023/09/27 05:12:00;;;;;;;33.35;29.52;;;13.60;53.00;;;;;;5099923;28;20469;-69
2023/09/27 05:14:25;;;;;;;32.87;29.23;;;13.60;52.60;;;;;;5082703;28;20427;-69
2023/09/27 05:16:51;;;;;;;34.78;29.77;;;13.60;52.60;;;;;;5099565;28;20456;-70
2023/09/27 05:19:16;;;;;;;33.07;28.83;;;13.50;52.60;;;;;;5100382;28;20400;-69
2023/09/27 05:21:43;;;;;;;33.97;29.03;;;13.50;52.50;;;;;;5107085;28;20400;-69
2023/09/27 05:24:09;;;;;;;36.80;30.88;;;13.50;52.90;;;;;;5099897;28;20770;-69
2023/09/27 05:26:34;;;;;;;36.53;31.53;;;13.50;53.10;;;;;;5104726;28;20405;-69
2023/09/27 05:29:01;;;;;;;35.20;30.63;;;13.50;53.30;;;;;;5104434;28;20440;-70
2023/09/27 05:31:28;;;;;;;34.90;30.75;;;13.50;53.40;;;;;;5088933;28;20448;-70
2023/09/27 05:33:53;;;;;;;35.38;30.52;;;13.50;53.30;;;;;;5098435;28;20901;-70
2023/09/27 05:36:19;;;;;;;34.88;30.70;;;13.50;53.50;;;;;;5097080;28;20471;-70
2023/09/27 05:38:46;;;;;;;38.10;31.80;;;13.50;53.50;;;;;;5097391;28;20451;-69
2023/09/27 05:41:11;;;;;;;34.22;30.52;;;13.50;53.70;;;;;;5093494;28;20404;-69
2023/09/27 05:43:37;;;;;;;36.30;31.43;;;13.50;53.50;;;;;;5104312;28;20419;-69
2023/09/27 05:46:03;;;;;;;36.80;31.92;;;13.50;53.90;;;;;;5107823;28;20395;-69
2023/09/27 05:48:30;;;;;;;40.00;32.03;;;13.50;54.50;;;;;;5078345;28;21279;-69
2023/09/27 05:50:56;;;;;;;37.92;32.22;;;13.60;55.80;;;;;;5101338;28;20441;-69
2023/09/27 05:53:21;;;;;;;35.27;31.27;;;13.60;55.80;;;;;;5089633;28;20457;-69
2023/09/27 05:55:48;;;;;;;35.58;31.35;;;13.60;55.80;;;;;;5100801;28;20398;-70
2023/09/27 05:58:13;;;;;;;37.70;31.55;;;13.60;56.20;;;;;;5100279;28;20408;-70
2023/09/27 06:00:42;;;;;;;34.83;30.88;;;13.60;56.70;;;;;;5093905;28;20404;-69
2023/09/27 06:03:08;;;;;;;35.58;30.42;;;13.70;56.90;;;;;;5106947;28;21183;-70
2023/09/27 06:05:34;;;;;;;38.40;31.02;;;13.70;57.50;;;;;;5106094;28;20428;-69
2023/09/27 06:08:00;;;;;;;35.47;30.67;;;13.80;57.80;;;;;;5106134;28;20428;-69
2023/09/27 06:10:25;;;;;;;37.37;31.33;;;13.90;58.30;;;;;;5070524;28;20434;-70
2023/09/27 06:12:52;;;;;;;39.45;31.05;;;13.90;58.60;;;;;;5087705;28;20421;-70
2023/09/27 06:15:17;;;;;;;37.75;31.67;;;14.00;58.60;;;;;;5076139;28;20404;-70
2023/09/27 06:17:43;;;;;;;37.63;31.33;;;14.00;59.00;;;;;;5094001;28;20456;-70
2023/09/27 06:20:19;;;;;;;38.67;31.52;;;14.10;58.90;;;;;;5104829;28;20804;-69
2023/09/27 06:22:50;;;;;;;36.35;32.05;;;14.10;58.80;;;;;;5093133;28;20569;-70
2023/09/27 06:25:17;;;;;;;35.47;31.40;;;14.20;59.20;;;;;;5095406;28;20397;-69
2023/09/27 06:27:43;;;;;;;35.70;31.15;;;14.20;59.20;;;;;;5086800;28;20793;-70
2023/09/27 06:30:09;;;;;;;36.80;32.17;;;14.20;59.40;;;;;;5106759;28;20399;-70
2023/09/27 06:32:35;;;;;;;37.28;32.28;;;14.20;59.50;;;;;;5102737;28;20434;-69
2023/09/27 06:35:10;;;;;;;36.35;32.38;;;14.20;59.50;;;;;;5095158;28;20420;-70
2023/09/27 06:37:36;;;;;;;38.85;32.53;;;14.30;59.60;;;;;;5091718;28;20896;-70
2023/09/27 06:40:07;;;;;;;37.40;31.95;;;14.30;59.50;;;;;;5106220;28;20743;-70
2023/09/27 06:42:33;;;;;;;37.07;32.00;;;14.30;59.80;;;;;;5094369;28;20401;-70
2023/09/27 06:44:59;;;;;;;36.80;30.70;;;14.40;59.50;;;;;;5079429;28;20516;-69
2023/09/27 06:47:27;;;;;;;35.72;30.67;;;14.40;59.60;;;;;;5099947;28;20424;-70
2023/09/27 06:49:53;;;;;;;35.00;29.92;;;14.40;59.60;;;;;;5098530;28;20426;-70
2023/09/27 06:52:20;;;;;;;33.97;30.08;;;14.50;59.70;;;;;;5089642;28;20426;-70
2023/09/27 06:54:45;;;;;;;34.72;30.55;;;14.50;59.40;;;;;;5099237;28;20415;-69
2023/09/27 06:57:13;;;;;;;35.53;30.90;;;14.50;59.40;;;;;;5093981;28;20393;-70
2023/09/27 06:59:39;;;;;;;36.35;30.77;;;14.50;59.50;;;;;;5107789;28;20412;-70
2023/09/27 07:02:05;;;;;;;34.90;30.50;;;14.50;59.70;;;;;;5106635;28;20399;-70
2023/09/27 07:04:31;;;;;;;34.83;30.98;;;14.60;59.90;;;;;;5107580;28;20396;-70
2023/09/27 07:06:57;;;;;;;36.67;31.63;;;14.60;60.00;;;;;;5105619;28;20898;-70
2023/09/27 07:09:22;;;;;;;35.05;31.10;;;14.60;60.10;;;;;;5095994;28;20456;-69
2023/09/27 07:11:48;;;;;;;38.30;30.13;;;14.70;60.60;;;;;;5090839;28;20853;-70
2023/09/27 07:14:15;;;;;;;34.47;30.37;;;14.80;61.00;;;;;;5097446;28;20398;-70
2023/09/27 07:16:41;;;;;;;35.30;31.27;;;14.80;61.10;;;;;;5104545;28;20392;-70
2023/09/27 07:19:07;;;;;;;34.15;30.52;;;14.90;61.20;;;;;;5106079;28;20449;-70
2023/09/27 07:21:32;;;;;;;32.88;29.38;;;15.00;60.90;;;;;;5101483;28;20390;-70
2023/09/27 07:23:58;;;;;;;34.47;30.80;;;15.00;60.50;;;;;;5098005;28;20817;-70
2023/09/27 07:26:24;;;;;;;37.25;29.50;;;15.10;60.30;;;;;;5099967;28;21175;-70
2023/09/27 07:28:50;;;;;;;33.40;29.17;;;15.10;59.80;;;;;;5089244;28;20447;-70
2023/09/27 07:31:16;;;;;;;33.20;28.17;;;15.10;59.20;;;;;;5093641;28;20392;-70
2023/09/27 07:33:46;;;;;;;32.60;29.20;;;15.20;57.40;;;;;;5094552;28;20913;-70
2023/09/27 07:36:12;;;;;;;33.10;29.50;;;15.20;57.30;;;;;;5101593;28;20430;-70
2023/09/27 07:38:38;;;;;;;33.50;28.90;;;15.30;57.40;;;;;;5106501;28;20388;-70
2023/09/27 07:41:04;;;;;;;31.90;28.50;;;15.40;58.20;;;;;;5092541;28;20928;-70
2023/09/27 07:43:30;;;;;;;34.07;28.80;;;15.50;59.50;;;;;;5095959;28;20913;-70
2023/09/27 07:45:56;;;;;;;32.42;28.60;;;15.70;57.80;;;;;;5092762;28;20408;-69
2023/09/27 07:48:22;;;;;;;30.60;27.23;;;15.70;58.00;;;;;;5098388;28;20416;-70
2023/09/27 07:50:47;;;;;;;30.80;27.42;;;15.90;57.10;;;;;;5107711;28;20393;-70
2023/09/27 07:53:13;;;;;;;31.47;27.90;;;15.90;55.70;;;;;;5109479;28;20431;-70
2023/09/27 07:55:46;;;;;;;31.23;27.63;;;16.00;55.20;;;;;;5107560;28;20902;-70
2023/09/27 07:58:13;;;;;;;31.80;28.40;;;16.00;54.10;;;;;;5109303;28;20438;-70
2023/09/27 08:00:43;;;;;;;32.37;28.70;;;16.10;53.30;;;;;;5090958;28;20417;-70
2023/09/27 08:03:10;;;;;;;34.80;28.48;;;16.10;52.20;;;;;;5091427;28;20459;-70
2023/09/27 08:05:42;;;;;;;32.58;29.15;;;16.20;51.80;;;;;;5091090;28;20398;-70
2023/09/27 08:08:13;;;;;;;34.38;29.80;;;16.30;52.40;;;;;;5103880;28;20739;-70
2023/09/27 08:10:45;;;;;;;32.22;28.30;;;16.40;52.80;;;;;;5098224;28;20483;-70
2023/09/27 08:13:16;;;;;;;31.58;28.25;;;16.40;52.60;;;;;;5086690;28;20429;-70
2023/09/27 08:15:43;;;;;;;31.08;27.67;;;16.50;53.60;;;;;;5098781;28;20479;-70
2023/09/27 08:18:08;;;;;;;30.60;27.35;;;16.60;51.40;;;;;;5105952;28;20401;-70
2023/09/27 08:20:35;;;;;;;32.43;27.40;;;16.80;49.20;;;;;;5100059;28;20978;-70
2023/09/27 08:23:01;;;;;;;30.20;27.00;;;16.80;45.50;;;;;;5090513;28;20477;-69
2023/09/27 08:25:27;;;;;;;30.63;26.40;;;16.90;44.00;;;;;;5089363;28;20401;-70
2023/09/27 08:27:53;;;;;;;30.98;27.67;;;16.90;44.00;;;;;;5104201;28;20428;-70
2023/09/27 08:30:20;;;;;;;31.47;27.47;;;17.00;44.40;;;;;;5102199;28;20458;-69
2023/09/27 08:32:46;;;;;;;29.45;26.25;;;17.10;43.90;;;;;;5091983;28;20425;-70
2023/09/27 08:35:11;;;;;;;31.80;27.48;;;17.20;41.30;;;;;;5106928;28;20407;-70
2023/09/27 08:37:37;;;;;;;30.67;27.30;;;17.40;39.40;;;;;;5092549;28;20390;-70
2023/09/27 08:40:12;;;;;;;29.90;26.17;;;17.50;36.80;;;;;;5105675;28;20396;-70
2023/09/27 08:42:39;;;;;;;30.67;27.33;;;17.60;37.20;;;;;;5096753;28;20400;-70
2023/09/27 08:45:14;;;;;;;29.95;26.75;;;17.80;36.50;;;;;;5097428;28;20401;-70
2023/09/27 08:47:44;;;;;;;32.22;27.65;;;17.90;34.90;;;;;;5095342;28;20430;-70
2023/09/27 08:50:14;;;;;;;30.33;27.13;;;18.00;31.60;;;;;;5107978;28;20396;-70
2023/09/27 08:52:48;;;;;;;30.02;26.75;;;18.10;29.60;;;;;;5107672;28;20988;-70
2023/09/27 08:55:15;;;;;;;31.30;26.83;;;18.20;29.30;;;;;;5107671;28;20403;-70
2023/09/27 08:57:46;;;;;;;30.97;25.97;;;18.30;29.70;;;;;;5096592;28;20404;-70
2023/09/27 09:00:19;;;;;;;28.42;25.02;;;18.50;26.40;;;;;;5105169;28;20895;-70
2023/09/27 09:02:48;;;;;;;29.30;25.70;;;18.60;21.60;;;;;;5098265;28;20400;-70
2023/09/27 09:05:16;;;;;;;28.17;25.15;;;18.70;20.20;;;;;;5094264;28;20851;-70
2023/09/27 09:07:42;;;;;;;25.70;22.63;;;18.90;21.90;;;;;;5107369;28;20750;-70
2023/09/27 09:10:13;;;;;;;24.92;22.23;;;19.20;23.00;;;;;;5093083;28;20390;-70
2023/09/27 09:12:39;;;;;;;24.83;21.27;;;19.80;28.40;;;;;;5100734;28;20755;-70
2023/09/27 09:15:06;;;;;;;23.42;20.88;;;20.60;24.70;;;;;;5100928;28;20402;-70
2023/09/27 09:17:36;;;;;;;23.20;19.20;;;21.50;6.60;;;;;;5090662;28;20412;-71
2023/09/27 09:20:32;;;;;;;20.08;17.85;;;22.30;1.00;;;;;;5102934;28;20962;-70
2023/09/27 09:22:57;;;;;;;23.92;18.60;;;23.10;1.00;;;;;;5092123;28;21139;-70
2023/09/27 09:25:23;;;;;;;23.00;19.15;;;23.50;1.00;;;;;;5080654;28;20430;-71
2023/09/27 09:28:07;;;;;;;20.63;18.52;;;23.50;1.00;;;;;;5101074;28;20863;-71
2023/09/27 09:30:37;;;;;;;20.50;16.02;;;23.80;1.00;;;;;;5108972;28;20922;-70
2023/09/27 09:33:08;;;;;;;18.92;15.73;;;24.30;1.00;;;;;;5099108;28;20456;-70
2023/09/27 09:35:34;;;;;;;19.23;14.82;;;24.70;99.90;;;;;;5100222;28;20396;-71
2023/09/27 09:38:03;;;;;;;17.53;14.60;;;24.90;99.90;;;;;;5091280;28;20447;-71
2023/09/27 09:40:31;;;;;;;18.40;14.00;;;25.10;99.90;;;;;;5089347;28;20406;-71
2023/09/27 09:42:59;;;;;;;17.10;13.43;;;25.00;99.90;;;;;;5087822;28;20431;-70
2023/09/27 09:45:26;;;;;;;18.38;13.73;;;25.00;99.90;;;;;;5093359;28;20410;-70
2023/09/27 09:47:52;;;;;;;15.77;12.63;;;24.80;98.10;;;;;;5095734;28;20445;-71
2023/09/27 09:50:18;;;;;;;16.45;12.52;;;24.70;86.00;;;;;;5095085;28;20487;-71
2023/09/27 09:52:57;;;;;;;15.35;12.13;;;24.70;70.10;;;;;;5083043;28;20970;-70
2023/09/27 09:55:29;;;;;;;16.80;12.32;;;24.60;1.00;;;;;;5101242;28;20440;-71
2023/09/27 09:58:20;;;;;;;17.38;13.27;;;24.60;1.00;;;;;;5100444;28;20404;-71
2023/09/27 10:00:50;;;;;;;15.55;13.07;;;24.60;1.50;;;;;;5096012;28;20758;-71
2023/09/27 10:03:21;;;;;;;16.92;12.27;;;24.40;1.00;;;;;;5094912;28;20402;-70
2023/09/27 10:05:50;;;;;;;14.63;11.23;;;24.30;1.00;;;;;;5107824;28;20404;-71
2023/09/27 10:08:20;;;;;;;16.48;11.48;;;24.50;68.60;;;;;;5106123;28;20410;-71
2023/09/27 10:10:47;;;;;;;14.80;11.80;;;24.70;1.00;;;;;;5107587;28;20400;-70
2023/09/27 10:13:14;;;;;;;13.48;9.52;;;24.80;99.90;;;;;;5104968;28;20430;-70
2023/09/27 10:15:41;;;;;;;11.82;8.38;;;24.90;99.90;;;;;;5106979;28;20405;-70
2023/09/27 10:18:22;;;;;;;13.23;8.47;;;24.90;1.00;;;;;;5103972;28;20388;-71
2023/09/27 10:21:03;;;;;;;12.73;8.45;;;24.80;99.90;;;;;;5073105;28;20417;-70
2023/09/27 10:23:36;;;;;;;13.07;8.60;;;24.40;97.00;;;;;;5104663;28;20408;-70
2023/09/27 10:26:26;;;;;;;12.60;8.55;;;24.10;1.00;;;;;;5105416;28;20400;-70
2023/09/27 10:29:00;;;;;;;10.38;6.88;;;23.80;1.00;;;;;;5098275;28;20963;-70
2023/09/27 10:31:30;;;;;;;11.05;5.88;;;23.90;76.30;;;;;;5098333;28;20489;-70
2023/09/27 10:33:56;;;;;;;9.77;5.75;;;24.00;1.00;;;;;;5088921;28;20394;-70
2023/09/27 10:36:21;;;;;;;10.90;6.30;;;24.20;1.00;;;;;;5101374;28;20762;-71
2023/09/27 10:38:50;;;;;;;13.57;6.17;;;24.40;99.90;;;;;;5102673;28;20454;-70
2023/09/27 10:41:38;;;;;;;11.70;6.70;;;24.60;40.80;;;;;;5067097;28;20417;-71
2023/09/27 10:44:04;;;;;;;10.23;6.10;;;24.60;56.20;;;;;;5091486;28;20407;-70
2023/09/27 10:46:49;;;;;;;12.10;6.17;;;24.60;99.90;;;;;;5089338;28;20456;-70
2023/09/27 10:49:22;;;;;;;11.23;5.82;;;24.30;1.00;;;;;;5101272;28;20413;-70
2023/09/27 10:51:48;;;;;;;9.68;5.32;;;24.00;1.00;;;;;;5087783;28;20924;-71
2023/09/27 10:54:14;;;;;;;9.88;5.20;;;23.70;99.90;;;;;;5101039;28;20402;-71
2023/09/27 10:56:44;;;;;;;9.43;5.72;;;23.40;99.90;;;;;;5101563;28;20453;-70
2023/09/27 10:59:10;;;;;;;9.95;5.57;;;23.10;99.90;;;;;;5095594;28;20510;-70
2023/09/27 11:01:43;;;;;;;8.18;5.30;;;23.00;1.00;;;;;;5106007;28;20491;-70
2023/09/27 11:04:12;;;;;;;8.77;5.35;;;22.90;1.00;;;;;;5089085;28;20487;-70
2023/09/27 11:06:38;;;;;;;11.52;6.22;;;22.90;99.90;;;;;;5101310;28;20778;-70
2023/09/27 11:09:07;;;;;;;12.27;7.10;;;22.90;99.90;;;;;;5095882;28;20393;-70
2023/09/27 11:11:36;;;;;;;10.88;6.97;;;22.90;99.90;;;;;;5104039;28;20410;-70
2023/09/27 11:14:01;;;;;;;11.20;6.80;;;23.00;99.90;;;;;;5098099;28;20491;-70
2023/09/27 11:16:27;;;;;;;11.97;6.00;;;22.90;99.90;;;;;;5105981;28;20485;-70
2023/09/27 11:18:56;;;;;;;10.93;7.17;;;22.90;99.90;;;;;;5097280;28;20432;-70
2023/09/27 11:21:28;;;;;;;9.73;6.70;;;22.80;99.90;;;;;;5088590;28;20394;-70
2023/09/27 11:23:58;;;;;;;10.60;6.75;;;22.60;99.90;;;;;;5101876;28;20411;-70
2023/09/27 11:26:25;;;;;;;12.40;8.13;;;22.50;99.90;;;;;;5092594;28;20420;-70
2023/09/27 11:29:07;;;;;;;10.75;7.53;;;22.40;99.90;;;;;;5101353;28;20447;-70
2023/09/27 11:31:35;;;;;;;12.68;7.97;;;22.20;99.90;;;;;;5107410;28;20491;-70
2023/09/27 11:34:30;;;;;;;14.32;8.93;;;22.10;1.00;;;;;;5106804;28;20922;-70
2023/09/27 11:37:02;;;;;;;13.48;8.70;;;22.10;82.20;;;;;;5082834;28;20419;-70
2023/09/27 11:39:50;;;;;;;16.33;8.27;;;22.10;99.90;;;;;;5102313;28;20762;-70
2023/09/27 11:42:26;;;;;;;12.15;8.48;;;22.00;99.90;;;;;;5101684;28;20414;-70
2023/09/27 11:45:12;;;;;;;11.50;7.73;;;22.00;99.90;;;;;;5102222;28;20401;-70
2023/09/27 11:47:51;;;;;;;10.90;8.07;;;22.00;99.90;;;;;;5103940;28;20485;-70
2023/09/27 11:50:18;;;;;;;11.30;7.80;;;22.00;99.90;;;;;;5090839;28;21160;-70
2023/09/27 11:52:47;;;;;;;11.95;7.93;;;22.00;99.90;;;;;;5091519;28;20459;-70
2023/09/27 11:55:14;;;;;;;11.00;8.13;;;22.00;99.90;;;;;;5091156;28;20950;-70
2023/09/27 11:57:40;;;;;;;12.10;7.75;;;22.00;99.90;;;;;;5099532;28;20399;-70
2023/09/27 12:00:15;;;;;;;12.07;7.70;;;22.00;99.90;;;;;;5106461;28;20513;-70
2023/09/27 12:02:43;;;;;;;11.52;7.57;;;22.00;99.90;;;;;;5100161;28;20893;-70
2023/09/27 12:05:09;;;;;;;11.43;8.27;;;22.00;99.90;;;;;;5075442;28;20413;-70
2023/09/27 12:07:35;;;;;;;12.93;8.57;;;22.10;99.90;;;;;;5091011;28;20399;-70
2023/09/27 12:10:01;;;;;;;13.73;8.73;;;22.20;99.90;;;;;;5091017;28;20402;-70
2023/09/27 12:12:30;;;;;;;13.10;9.30;;;22.40;99.90;;;;;;5098956;28;20463;-70
2023/09/27 12:14:55;;;;;;;11.90;8.98;;;22.60;99.90;;;;;;5106607;28;20899;-70
2023/09/27 12:17:21;;;;;;;12.43;9.13;;;22.80;99.90;;;;;;5099380;28;20483;-70
2023/09/27 12:19:47;;;;;;;13.90;9.90;;;22.90;95.70;;;;;;5073118;28;20961;-70
2023/09/27 12:22:12;;;;;;;10.73;8.57;;;22.90;1.00;;;;;;5099443;28;20415;-70
2023/09/27 12:24:38;;;;;;;12.73;8.57;;;22.80;1.00;;;;;;5103970;28;20445;-70
2023/09/27 12:27:04;;;;;;;10.40;8.00;;;22.70;1.00;;;;;;5099965;28;20768;-70
2023/09/27 12:29:30;;;;;;;11.25;8.07;;;22.60;1.00;;;;;;5092436;28;20394;-70
2023/09/27 12:31:56;;;;;;;11.43;8.00;;;22.60;1.00;;;;;;5107104;28;20477;-70
2023/09/27 12:34:21;;;;;;;11.48;8.00;;;22.70;1.00;;;;;;5090342;28;20764;-70